Station Historical Data
Daily Summary for July 6, 2017 Units:  English    Metric   Both
« Previous Day
Next Day »
Daily Weekly Monthly Yearly Custom
  High: Low: Average:
Temperature: 86.5 °F 67.2 °F 76.2 °F
Dew Point: 69.6 °F 57.3 °F 63.8 °F
Humidity: 87% 38% 67%
Wind Speed: 7.0mph 0.0mph 2.5mph
Wind Gust: 12.0mph - -
Wind- - SW
Pressure: 30.05 in 29.85 in -
Precipitation: 0.00 in    
Historical Graphs
 
 
Tabular Data for July 6, 2017
Time Temperature Dew Point Pressure Wind Wind Speed Wind Gust Humidity Rainfall Rate (Hourly)
00:04 69.6 °F 59.8 °F 30.04 in Calm     71% 0.00 in
00:09 69.5 °F 60.1 °F 30.05 in Calm     72% 0.00 in
00:14 69.5 °F 60.1 °F 30.04 in Calm     72% 0.00 in
00:19 69.5 °F 60.1 °F 30.04 in Calm     72% 0.00 in
00:24 69.4 °F 60.0 °F 30.04 in Calm     72% 0.00 in
00:29 69.0 °F 60.0 °F 30.04 in Calm     73% 0.00 in
00:34 68.8 °F 60.2 °F 30.04 in Calm     74% 0.00 in
00:39 68.7 °F 60.1 °F 30.04 in Calm     74% 0.00 in
00:44 68.6 °F 60.0 °F 30.03 in Calm     74% 0.00 in
00:49 68.8 °F 60.2 °F 30.04 in Calm     74% 0.00 in
00:54 69.1 °F 60.5 °F 30.03 in Calm     74% 0.00 in
00:59 69.5 °F 60.8 °F 30.03 in Calm     74% 0.00 in
01:04 69.6 °F 61.3 °F 30.03 in Calm     75% 0.00 in
01:09 69.5 °F 61.6 °F 30.03 in Calm     76% 0.00 in
01:14 69.3 °F 61.4 °F 30.03 in Calm     76% 0.00 in
01:19 69.0 °F 61.5 °F 30.03 in Calm     77% 0.00 in
01:24 68.8 °F 61.7 °F 30.03 in Calm     78% 0.00 in
01:29 68.8 °F 61.7 °F 30.03 in Calm     78% 0.00 in
01:34 68.9 °F 62.1 °F 30.03 in Calm     79% 0.00 in
01:39 68.8 °F 62.0 °F 30.03 in Calm     79% 0.00 in
01:44 68.8 °F 62.0 °F 30.03 in Calm     79% 0.00 in
01:49 68.8 °F 62.0 °F 30.03 in Calm     79% 0.00 in
01:54 68.9 °F 62.5 °F 30.02 in Calm   2.0 mph 80% 0.00 in
01:59 69.2 °F 63.1 °F 30.02 in Calm   2.0 mph 81% 0.00 in
02:04 69.1 °F 63.0 °F 30.02 in Calm   1.0 mph 81% 0.00 in
02:09 69.2 °F 63.5 °F 30.02 in Calm     82% 0.00 in
02:14 69.3 °F 63.9 °F 30.02 in Calm   3.0 mph 83% 0.00 in
02:19 69.6 °F 64.2 °F 30.02 in SSW 1.0 mph 3.0 mph 83% 0.00 in
02:24 69.8 °F 64.4 °F 30.02 in Calm   3.0 mph 83% 0.00 in
02:29 70.1 °F 64.7 °F 30.02 in SW 1.0 mph 5.0 mph 83% 0.00 in
02:34 70.5 °F 65.1 °F 30.02 in SSW 1.0 mph 5.0 mph 83% 0.00 in
02:39 70.8 °F 65.0 °F 30.02 in SW 1.0 mph 3.0 mph 82% 0.00 in
02:44 70.7 °F 64.9 °F 30.02 in SW 1.0 mph 3.0 mph 82% 0.00 in
02:49 70.7 °F 64.9 °F 30.01 in WSW 1.0 mph 4.0 mph 82% 0.00 in
02:54 70.9 °F 65.1 °F 30.02 in SW 2.0 mph 5.0 mph 82% 0.00 in
02:59 70.8 °F 65.0 °F 30.01 in SW 2.0 mph 5.0 mph 82% 0.00 in
03:04 70.8 °F 64.7 °F 30.01 in SSW 1.0 mph 4.0 mph 81% 0.00 in
03:09 70.7 °F 64.6 °F 30.01 in Calm   4.0 mph 81% 0.00 in
03:14 70.6 °F 64.8 °F 30.01 in SW 1.0 mph 2.0 mph 82% 0.00 in
03:19 70.6 °F 64.8 °F 30.01 in SW 1.0 mph 5.0 mph 82% 0.00 in
03:24 70.7 °F 64.9 °F 30.01 in Calm   5.0 mph 82% 0.00 in
03:29 70.6 °F 64.5 °F 30.01 in WSW 3.0 mph 3.0 mph 81% 0.00 in
03:34 70.5 °F 64.7 °F 30.01 in Calm   3.0 mph 82% 0.00 in
03:39 70.4 °F 64.3 °F 30.01 in SW 1.0 mph 3.0 mph 81% 0.00 in
03:44 70.3 °F 64.2 °F 30.01 in SW 1.0 mph 4.0 mph 81% 0.00 in
03:49 70.3 °F 64.2 °F 30.00 in SW 1.0 mph 6.0 mph 81% 0.00 in
03:54 70.3 °F 64.5 °F 30.01 in SW 1.0 mph 6.0 mph 82% 0.00 in
03:59 70.3 °F 64.2 °F 30.00 in SW 1.0 mph 3.0 mph 81% 0.00 in
04:04 70.5 °F 64.4 °F 30.00 in SW 2.0 mph 4.0 mph 81% 0.00 in
04:09 70.5 °F 64.4 °F 30.00 in SW 1.0 mph 5.0 mph 81% 0.00 in
04:14 70.5 °F 64.4 °F 30.00 in SW 1.0 mph 5.0 mph 81% 0.00 in
04:19 70.4 °F 64.3 °F 30.00 in Calm   4.0 mph 81% 0.00 in
04:24 70.4 °F 64.3 °F 30.00 in SW 2.0 mph 3.0 mph 81% 0.00 in
04:29 70.1 °F 64.0 °F 30.00 in SW 1.0 mph 3.0 mph 81% 0.00 in
04:34 69.9 °F 64.2 °F 30.00 in Calm   3.0 mph 82% 0.00 in
04:39 69.8 °F 64.1 °F 30.00 in Calm   3.0 mph 82% 0.00 in
04:44 69.6 °F 63.9 °F 30.00 in Calm     82% 0.00 in
04:49 69.5 °F 63.8 °F 30.00 in Calm     82% 0.00 in
05:05 69.2 °F 63.8 °F 30.00 in Calm   2.0 mph 83% 0.00 in
05:15 68.9 °F 63.5 °F 30.00 in Calm   2.0 mph 83% 0.00 in
05:24 68.4 °F 63.4 °F 30.00 in Calm     84% 0.00 in
05:25 68.4 °F 63.4 °F 30.00 in Calm     84% 0.00 in
05:29 68.0 °F 63.0 °F 30.00 in Calm     84% 0.00 in
05:34 67.9 °F 63.2 °F 30.00 in Calm     85% 0.00 in
05:39 67.7 °F 63.4 °F 30.00 in Calm     86% 0.00 in
05:44 67.6 °F 63.3 °F 30.00 in Calm     86% 0.00 in
05:49 67.5 °F 63.2 °F 30.00 in Calm     86% 0.00 in
05:54 67.3 °F 63.0 °F 30.00 in Calm     86% 0.00 in
05:59 67.3 °F 63.0 °F 30.00 in Calm     86% 0.00 in
06:04 67.3 °F 63.0 °F 30.00 in Calm     86% 0.00 in
06:09 67.2 °F 63.2 °F 30.00 in Calm     87% 0.00 in
06:14 67.4 °F 63.4 °F 30.00 in Calm   1.0 mph 87% 0.00 in
06:19 67.5 °F 63.5 °F 30.00 in Calm     87% 0.00 in
06:24 67.6 °F 63.3 °F 30.00 in Calm     86% 0.00 in
06:29 67.9 °F 63.9 °F 30.00 in Calm     87% 0.00 in
06:34 68.3 °F 63.9 °F 30.00 in Calm     86% 0.00 in
06:39 68.5 °F 64.1 °F 30.00 in Calm     86% 0.00 in
06:44 68.8 °F 64.1 °F 30.00 in Calm   3.0 mph 85% 0.00 in
06:49 69.3 °F 64.6 °F 30.00 in Calm   3.0 mph 85% 0.00 in
06:54 69.7 °F 64.6 °F 30.00 in Calm   3.0 mph 84% 0.00 in
06:59 70.1 °F 65.0 °F 30.00 in Calm   2.0 mph 84% 0.00 in
07:04 70.5 °F 65.1 °F 29.99 in SW 2.0 mph 4.0 mph 83% 0.00 in
07:09 70.8 °F 65.0 °F 29.99 in SW 1.0 mph 4.0 mph 82% 0.00 in
07:14 71.1 °F 65.0 °F 30.00 in SSW 1.0 mph 4.0 mph 81% 0.00 in
07:19 71.2 °F 65.1 °F 30.00 in SW 1.0 mph 4.0 mph 81% 0.00 in
07:24 71.3 °F 65.2 °F 30.00 in SW 2.0 mph 6.0 mph 81% 0.00 in
07:29 71.5 °F 65.0 °F 30.00 in SW 1.0 mph 4.0 mph 80% 0.00 in
07:34 71.7 °F 65.2 °F 30.00 in Calm   4.0 mph 80% 0.00 in
07:39 71.9 °F 65.4 °F 30.00 in WSW 2.0 mph 5.0 mph 80% 0.00 in
07:44 72.0 °F 65.5 °F 30.00 in WSW 2.0 mph 4.0 mph 80% 0.00 in
07:49 72.2 °F 65.7 °F 30.00 in SW 3.0 mph 4.0 mph 80% 0.00 in
07:54 72.8 °F 65.9 °F 30.01 in Calm   3.0 mph 79% 0.00 in
07:59 73.5 °F 66.2 °F 30.00 in SSW 5.0 mph 5.0 mph 78% 0.00 in
08:04 74.0 °F 66.3 °F 30.01 in SSW 5.0 mph 8.0 mph 77% 0.00 in
08:09 74.2 °F 66.1 °F 30.01 in SW 4.0 mph 8.0 mph 76% 0.00 in
08:14 74.4 °F 66.3 °F 30.01 in SW 4.0 mph 9.0 mph 76% 0.00 in
08:19 74.9 °F 66.4 °F 30.01 in SW 3.0 mph 9.0 mph 75% 0.00 in
08:24 75.1 °F 66.6 °F 30.01 in WSW 3.0 mph 7.0 mph 75% 0.00 in
08:29 75.3 °F 66.8 °F 30.01 in WSW 4.0 mph 9.0 mph 75% 0.00 in
08:34 75.2 °F 66.7 °F 30.01 in WSW 5.0 mph 9.0 mph 75% 0.00 in
08:39 75.5 °F 66.6 °F 30.01 in SW 3.0 mph 7.0 mph 74% 0.00 in
08:44 75.6 °F 66.7 °F 30.01 in South 4.0 mph 8.0 mph 74% 0.00 in
08:49 75.5 °F 67.0 °F 30.01 in WSW 5.0 mph 7.0 mph 75% 0.00 in
08:54 76.0 °F 67.1 °F 30.01 in SW 3.0 mph 6.0 mph 74% 0.00 in
08:59 76.5 °F 66.8 °F 30.01 in West 6.0 mph 7.0 mph 72% 0.00 in
09:04 76.4 °F 67.1 °F 30.01 in WSW 4.0 mph 7.0 mph 73% 0.00 in
09:09 76.6 °F 66.9 °F 30.01 in SW 4.0 mph 10.0 mph 72% 0.00 in
09:14 76.7 °F 67.4 °F 30.01 in WSW 5.0 mph 10.0 mph 73% 0.00 in
09:19 76.7 °F 67.0 °F 30.01 in WSW 5.0 mph 8.0 mph 72% 0.00 in
09:24 77.0 °F 67.3 °F 30.01 in WSW 5.0 mph 8.0 mph 72% 0.00 in
09:29 77.4 °F 67.7 °F 30.01 in WSW 3.0 mph 9.0 mph 72% 0.00 in
09:34 76.8 °F 67.1 °F 30.01 in SW 4.0 mph 9.0 mph 72% 0.00 in
09:39 77.1 °F 67.4 °F 30.01 in SW 5.0 mph 9.0 mph 72% 0.00 in
09:44 77.4 °F 68.1 °F 30.00 in West 4.0 mph 10.0 mph 73% 0.00 in
09:49 77.5 °F 67.8 °F 30.01 in SW 2.0 mph 10.0 mph 72% 0.00 in
09:54 78.2 °F 68.0 °F 30.00 in SW 6.0 mph 10.0 mph 71% 0.00 in
09:59 77.7 °F 67.5 °F 30.00 in SW 7.0 mph 9.0 mph 71% 0.00 in
10:04 78.3 °F 68.1 °F 30.00 in SW 5.0 mph 9.0 mph 71% 0.00 in
10:09 77.5 °F 67.4 °F 30.00 in SW 5.0 mph 9.0 mph 71% 0.00 in
10:14 77.4 °F 67.3 °F 30.00 in WSW 4.0 mph 9.0 mph 71% 0.00 in
10:19 78.3 °F 68.1 °F 30.00 in SW 3.0 mph 9.0 mph 71% 0.00 in
10:24 77.9 °F 67.3 °F 30.00 in WSW 4.0 mph 8.0 mph 70% 0.00 in
10:29 78.2 °F 67.6 °F 30.00 in WSW 6.0 mph 10.0 mph 70% 0.00 in
10:34 78.0 °F 67.8 °F 30.00 in SW 5.0 mph 10.0 mph 71% 0.00 in
10:39 78.6 °F 68.0 °F 30.00 in WSW 5.0 mph 10.0 mph 70% 0.00 in
10:44 78.4 °F 67.8 °F 29.99 in WSW 5.0 mph 9.0 mph 70% 0.00 in
10:49 78.1 °F 67.1 °F 29.99 in SW 5.0 mph 9.0 mph 69% 0.00 in
10:54 77.2 °F 67.1 °F 29.99 in SW 4.0 mph 9.0 mph 71% 0.00 in
10:59 78.0 °F 69.0 °F 29.99 in South 4.0 mph 8.0 mph 74% 0.00 in
11:04 79.4 °F 68.8 °F 29.99 in SW 4.0 mph 8.0 mph 70% 0.00 in
11:09 79.5 °F 67.6 °F 29.99 in SW 4.0 mph 7.0 mph 67% 0.00 in
11:14 79.0 °F 68.0 °F 29.99 in SW 4.0 mph 7.0 mph 69% 0.00 in
11:19 79.1 °F 67.6 °F 29.98 in SW 2.0 mph 7.0 mph 68% 0.00 in
11:24 78.0 °F 67.0 °F 29.98 in SSW 3.0 mph 7.0 mph 69% 0.00 in
11:29 77.5 °F 67.4 °F 29.98 in WSW 2.0 mph 8.0 mph 71% 0.00 in
11:34 77.8 °F 67.6 °F 29.98 in WSW 3.0 mph 8.0 mph 71% 0.00 in
11:39 79.5 °F 68.9 °F 29.98 in WSW 4.0 mph 9.0 mph 70% 0.00 in
11:44 80.0 °F 68.5 °F 29.98 in WSW 4.0 mph 9.0 mph 68% 0.00 in
11:49 80.0 °F 68.1 °F 29.98 in WSW 3.0 mph 8.0 mph 67% 0.00 in
11:54 80.0 °F 68.1 °F 29.97 in SW 3.0 mph 10.0 mph 67% 0.00 in
11:59 80.0 °F 68.1 °F 29.98 in SW 3.0 mph 9.0 mph 67% 0.00 in
12:04 79.3 °F 67.8 °F 29.98 in WSW 3.0 mph 9.0 mph 68% 0.00 in
12:09 79.4 °F 68.3 °F 29.98 in WSW 4.0 mph 7.0 mph 69% 0.00 in
12:14 79.6 °F 68.1 °F 29.98 in SSW 5.0 mph 9.0 mph 68% 0.00 in
12:19 79.4 °F 67.9 °F 29.97 in SSW 4.0 mph 9.0 mph 68% 0.00 in
12:24 79.6 °F 68.1 °F 29.97 in SW 7.0 mph 10.0 mph 68% 0.00 in
12:29 79.3 °F 68.2 °F 29.97 in SW 4.0 mph 9.0 mph 69% 0.00 in
12:34 79.6 °F 68.1 °F 29.97 in WSW 5.0 mph 12.0 mph 68% 0.00 in
12:39 79.6 °F 67.7 °F 29.97 in WSW 4.0 mph 12.0 mph 67% 0.00 in
12:44 79.6 °F 67.7 °F 29.97 in WSW 4.0 mph 8.0 mph 67% 0.00 in
12:49 80.5 °F 69.0 °F 29.97 in SW 5.0 mph 11.0 mph 68% 0.00 in
12:54 81.0 °F 68.1 °F 29.97 in WSW 4.0 mph 11.0 mph 65% 0.00 in
12:59 81.1 °F 68.7 °F 29.96 in WSW 4.0 mph 8.0 mph 66% 0.00 in
13:04 81.5 °F 68.6 °F 29.96 in West 3.0 mph 8.0 mph 65% 0.00 in
13:09 82.4 °F 69.0 °F 29.96 in West 3.0 mph 9.0 mph 64% 0.00 in
13:14 83.0 °F 69.6 °F 29.96 in WSW 2.0 mph 7.0 mph 64% 0.00 in
13:19 83.7 °F 68.3 °F 29.96 in SW 3.0 mph 10.0 mph 60% 0.00 in
13:24 84.0 °F 67.6 °F 29.96 in West 4.0 mph 8.0 mph 58% 0.00 in
13:29 83.2 °F 66.9 °F 29.97 in SSW 4.0 mph 7.0 mph 58% 0.00 in
13:34 84.0 °F 66.6 °F 29.96 in WSW 4.0 mph 9.0 mph 56% 0.00 in
13:39 84.3 °F 66.4 °F 29.96 in West 4.0 mph 9.0 mph 55% 0.00 in
13:44 83.8 °F 65.9 °F 29.96 in WSW 4.0 mph 12.0 mph 55% 0.00 in
13:49 84.3 °F 65.3 °F 29.96 in WSW 4.0 mph 12.0 mph 53% 0.00 in
13:54 84.7 °F 65.1 °F 29.96 in WSW 4.0 mph 10.0 mph 52% 0.00 in
13:59 84.8 °F 62.9 °F 29.96 in WSW 4.0 mph 9.0 mph 48% 0.00 in
14:04 84.4 °F 64.3 °F 29.96 in WSW 5.0 mph 6.0 mph 51% 0.00 in
14:09 84.3 °F 63.1 °F 29.95 in WNW 3.0 mph 10.0 mph 49% 0.00 in
14:14 84.6 °F 63.9 °F 29.95 in WSW 4.0 mph 9.0 mph 50% 0.00 in
14:19 85.5 °F 63.0 °F 29.95 in West 2.0 mph 8.0 mph 47% 0.00 in
14:24 84.9 °F 64.2 °F 29.95 in West 2.0 mph 10.0 mph 50% 0.00 in
14:29 86.2 °F 63.0 °F 29.94 in West 3.0 mph 9.0 mph 46% 0.00 in
14:34 85.8 °F 61.4 °F 29.94 in WSW 3.0 mph 7.0 mph 44% 0.00 in
14:39 86.1 °F 62.3 °F 29.94 in SW 4.0 mph 10.0 mph 45% 0.00 in
14:44 86.2 °F 60.4 °F 29.94 in SW 4.0 mph 10.0 mph 42% 0.00 in
14:49 85.9 °F 62.7 °F 29.94 in WSW 4.0 mph 7.0 mph 46% 0.00 in
14:54 85.8 °F 57.3 °F 29.94 in West 3.0 mph 9.0 mph 38% 0.00 in
14:59 86.1 °F 61.6 °F 29.93 in West 4.0 mph 6.0 mph 44% 0.00 in
15:04 85.9 °F 60.8 °F 29.93 in WSW 7.0 mph 10.0 mph 43% 0.00 in
15:09 86.5 °F 60.0 °F 29.93 in WSW 4.0 mph 10.0 mph 41% 0.00 in
15:14 86.0 °F 60.9 °F 29.93 in WSW 5.0 mph 9.0 mph 43% 0.00 in
15:19 85.8 °F 61.4 °F 29.92 in WSW 7.0 mph 9.0 mph 44% 0.00 in
15:24 85.6 °F 61.8 °F 29.91 in WSW 3.0 mph 9.0 mph 45% 0.00 in
15:29 86.2 °F 60.4 °F 29.91 in WNW 3.0 mph 7.0 mph 42% 0.00 in
15:34 85.0 °F 60.6 °F 29.91 in WSW 4.0 mph 10.0 mph 44% 0.00 in
15:39 84.9 °F 59.9 °F 29.91 in WSW 4.0 mph 10.0 mph 43% 0.00 in
15:44 85.4 °F 61.0 °F 29.91 in WSW 4.0 mph 9.0 mph 44% 0.00 in
15:49 85.2 °F 61.5 °F 29.91 in West 4.0 mph 10.0 mph 45% 0.00 in
15:54 85.7 °F 61.3 °F 29.91 in WSW 7.0 mph 10.0 mph 44% 0.00 in
15:59 85.1 °F 62.6 °F 29.91 in South 4.0 mph 8.0 mph 47% 0.00 in
16:04 84.7 °F 61.0 °F 29.91 in SW 3.0 mph 10.0 mph 45% 0.00 in
16:09 84.8 °F 61.1 °F 29.91 in SW 5.0 mph 10.0 mph 45% 0.00 in
16:14 84.8 °F 62.3 °F 29.91 in WSW 5.0 mph 10.0 mph 47% 0.00 in
16:19 84.3 °F 61.9 °F 29.91 in WSW 5.0 mph 10.0 mph 47% 0.00 in
16:24 84.7 °F 62.8 °F 29.91 in WSW 3.0 mph 8.0 mph 48% 0.00 in
16:29 85.0 °F 64.3 °F 29.91 in West 3.0 mph 9.0 mph 50% 0.00 in
16:34 84.7 °F 61.6 °F 29.91 in SW 7.0 mph 9.0 mph 46% 0.00 in
16:39 84.4 °F 63.2 °F 29.90 in WSW 5.0 mph 9.0 mph 49% 0.00 in
16:44 84.3 °F 63.1 °F 29.90 in West 4.0 mph 9.0 mph 49% 0.00 in
16:49 83.9 °F 60.3 °F 29.90 in WSW 3.0 mph 10.0 mph 45% 0.00 in
16:54 84.0 °F 61.0 °F 29.90 in SSW 3.0 mph 11.0 mph 46% 0.00 in
16:59 84.0 °F 62.2 °F 29.89 in WNW 6.0 mph 7.0 mph 48% 0.00 in
17:04 83.6 °F 61.2 °F 29.89 in SW 4.0 mph 10.0 mph 47% 0.00 in
17:09 83.0 °F 61.9 °F 29.89 in WSW 5.0 mph 10.0 mph 49% 0.00 in
17:14 82.8 °F 62.3 °F 29.89 in WSW 4.0 mph 9.0 mph 50% 0.00 in
17:19 82.5 °F 61.4 °F 29.89 in WSW 5.0 mph 9.0 mph 49% 0.00 in
17:24 82.6 °F 62.6 °F 29.88 in SW 3.0 mph 8.0 mph 51% 0.00 in
17:29 82.6 °F 63.2 °F 29.88 in South 4.0 mph 7.0 mph 52% 0.00 in
17:34 82.6 °F 62.6 °F 29.88 in SW 3.0 mph 9.0 mph 51% 0.00 in
17:39 82.3 °F 62.9 °F 29.88 in West 3.0 mph 7.0 mph 52% 0.00 in
17:44 82.3 °F 63.5 °F 29.88 in WSW 4.0 mph 7.0 mph 53% 0.00 in
17:49 81.8 °F 63.0 °F 29.88 in SW 5.0 mph 6.0 mph 53% 0.00 in
17:54 81.7 °F 62.9 °F 29.88 in WSW 3.0 mph 6.0 mph 53% 0.00 in
17:59 81.6 °F 63.9 °F 29.88 in WSW 1.0 mph 7.0 mph 55% 0.00 in
18:04 81.7 °F 63.4 °F 29.88 in WSW 3.0 mph 7.0 mph 54% 0.00 in
18:09 81.5 °F 63.8 °F 29.88 in WSW 3.0 mph 6.0 mph 55% 0.00 in
18:14 81.2 °F 63.5 °F 29.87 in WSW 4.0 mph 6.0 mph 55% 0.00 in
18:19 80.9 °F 63.2 °F 29.87 in WSW 3.0 mph 6.0 mph 55% 0.00 in
18:24 81.0 °F 63.3 °F 29.87 in WSW 3.0 mph 6.0 mph 55% 0.00 in
18:29 80.8 °F 62.6 °F 29.87 in WNW 1.0 mph 6.0 mph 54% 0.00 in
18:34 80.8 °F 62.1 °F 29.87 in West 2.0 mph 6.0 mph 53% 0.00 in
18:39 80.6 °F 62.4 °F 29.87 in WSW 2.0 mph 6.0 mph 54% 0.00 in
18:44 80.4 °F 61.7 °F 29.87 in WSW 7.0 mph 9.0 mph 53% 0.00 in
18:49 80.2 °F 62.0 °F 29.88 in West 5.0 mph 7.0 mph 54% 0.00 in
18:54 80.0 °F 61.9 °F 29.88 in West 5.0 mph 7.0 mph 54% 0.00 in
18:59 80.0 °F 62.9 °F 29.88 in SW 2.0 mph 6.0 mph 56% 0.00 in
19:04 79.8 °F 62.2 °F 29.88 in WSW 3.0 mph 7.0 mph 55% 0.00 in
19:09 79.5 °F 61.9 °F 29.88 in SW 3.0 mph 7.0 mph 55% 0.00 in
19:14 79.2 °F 62.1 °F 29.88 in SW 3.0 mph 7.0 mph 56% 0.00 in
19:19 78.9 °F 61.9 °F 29.88 in WSW 3.0 mph 8.0 mph 56% 0.00 in
19:24 78.7 °F 61.7 °F 29.88 in SW 4.0 mph 9.0 mph 56% 0.00 in
19:29 78.5 °F 62.0 °F 29.88 in SW 4.0 mph 9.0 mph 57% 0.00 in
19:34 78.4 °F 62.4 °F 29.88 in WSW 4.0 mph 6.0 mph 58% 0.00 in
19:39 78.3 °F 62.8 °F 29.88 in SW 3.0 mph 6.0 mph 59% 0.00 in
19:44 78.2 °F 62.2 °F 29.88 in SW 4.0 mph 7.0 mph 58% 0.00 in
19:49 78.0 °F 62.5 °F 29.88 in WSW 3.0 mph 6.0 mph 59% 0.00 in
19:54 78.0 °F 62.5 °F 29.88 in West 4.0 mph 5.0 mph 59% 0.00 in
19:59 77.8 °F 62.3 °F 29.88 in WSW 2.0 mph 5.0 mph 59% 0.00 in
20:04 77.6 °F 62.6 °F 29.88 in WSW 3.0 mph 7.0 mph 60% 0.00 in
20:09 77.5 °F 62.5 °F 29.88 in SW 3.0 mph 7.0 mph 60% 0.00 in
20:14 77.4 °F 62.9 °F 29.87 in SW 4.0 mph 7.0 mph 61% 0.00 in
20:19 77.2 °F 62.7 °F 29.87 in SW 4.0 mph 9.0 mph 61% 0.00 in
20:24 77.1 °F 62.6 °F 29.87 in SW 4.0 mph 9.0 mph 61% 0.00 in
20:29 77.0 °F 62.5 °F 29.87 in SW 3.0 mph 9.0 mph 61% 0.00 in
20:34 76.8 °F 61.9 °F 29.87 in WSW 1.0 mph 6.0 mph 60% 0.00 in
20:39 76.8 °F 62.3 °F 29.87 in South 2.0 mph 6.0 mph 61% 0.00 in
20:44 76.5 °F 62.5 °F 29.87 in South 4.0 mph 6.0 mph 62% 0.00 in
20:49 76.2 °F 63.1 °F 29.87 in SW 3.0 mph 7.0 mph 64% 0.00 in
20:54 75.9 °F 62.8 °F 29.87 in WSW 1.0 mph 6.0 mph 64% 0.00 in
20:59 75.7 °F 63.1 °F 29.87 in South 1.0 mph 5.0 mph 65% 0.00 in
21:04 75.5 °F 62.5 °F 29.87 in SW 3.0 mph 7.0 mph 64% 0.00 in
21:09 75.5 °F 62.9 °F 29.88 in SW 3.0 mph 7.0 mph 65% 0.00 in
21:14 75.5 °F 62.9 °F 29.88 in SW 3.0 mph 5.0 mph 65% 0.00 in
21:19 75.5 °F 62.9 °F 29.88 in SW 2.0 mph 5.0 mph 65% 0.00 in
21:24 75.5 °F 62.9 °F 29.88 in SSE 1.0 mph 5.0 mph 65% 0.00 in
21:29 75.3 °F 61.8 °F 29.88 in SW 2.0 mph 6.0 mph 63% 0.00 in
21:34 75.2 °F 61.7 °F 29.88 in SW 2.0 mph 6.0 mph 63% 0.00 in
21:39 75.1 °F 61.2 °F 29.88 in SW 2.0 mph 5.0 mph 62% 0.00 in
21:44 75.2 °F 61.3 °F 29.88 in WSW 3.0 mph 5.0 mph 62% 0.00 in
21:49 75.1 °F 61.2 °F 29.88 in SW 2.0 mph 6.0 mph 62% 0.00 in
21:54 74.9 °F 61.0 °F 29.88 in SW 1.0 mph 4.0 mph 62% 0.00 in
21:59 74.6 °F 61.2 °F 29.88 in SW 1.0 mph 3.0 mph 63% 0.00 in
22:04 74.6 °F 61.2 °F 29.88 in SW 2.0 mph 5.0 mph 63% 0.00 in
22:09 74.7 °F 61.3 °F 29.89 in SW 1.0 mph 5.0 mph 63% 0.00 in
22:14 74.8 °F 61.4 °F 29.89 in SW 1.0 mph 3.0 mph 63% 0.00 in
22:19 74.9 °F 61.5 °F 29.88 in SW 1.0 mph 3.0 mph 63% 0.00 in
22:24 74.9 °F 61.0 °F 29.88 in SW 1.0 mph 5.0 mph 62% 0.00 in
22:29 74.8 °F 60.9 °F 29.88 in SW 2.0 mph 6.0 mph 62% 0.00 in
22:34 74.7 °F 60.4 °F 29.87 in SSW 2.0 mph 7.0 mph 61% 0.00 in
22:39 74.6 °F 59.8 °F 29.87 in SSW 3.0 mph 7.0 mph 60% 0.00 in
22:44 74.6 °F 59.8 °F 29.87 in SSW 3.0 mph 7.0 mph 60% 0.00 in
22:49 74.5 °F 59.7 °F 29.87 in SW 2.0 mph 6.0 mph 60% 0.00 in
22:54 74.5 °F 59.7 °F 29.86 in SSW 2.0 mph 5.0 mph 60% 0.00 in
22:59 74.3 °F 60.0 °F 29.86 in SSW 1.0 mph 5.0 mph 61% 0.00 in
23:04 74.1 °F 59.8 °F 29.87 in SW 1.0 mph 2.0 mph 61% 0.00 in
23:09 73.8 °F 59.5 °F 29.87 in SW 2.0 mph 3.0 mph 61% 0.00 in
23:14 73.7 °F 59.9 °F 29.87 in SW 1.0 mph 5.0 mph 62% 0.00 in
23:19 73.6 °F 59.3 °F 29.86 in WSW 2.0 mph 3.0 mph 61% 0.00 in
23:24 73.7 °F 59.4 °F 29.86 in WSW 1.0 mph 3.0 mph 61% 0.00 in
23:29 73.9 °F 59.6 °F 29.85 in WSW 1.0 mph 3.0 mph 61% 0.00 in
23:34 73.7 °F 59.9 °F 29.85 in Calm   3.0 mph 62% 0.00 in
23:39 73.4 °F 59.6 °F 29.85 in Calm     62% 0.00 in
23:44 73.4 °F 60.0 °F 29.86 in Calm     63% 0.00 in
23:49 73.6 °F 60.2 °F 29.86 in Calm     63% 0.00 in
23:54 73.7 °F 60.3 °F 29.86 in Calm     63% 0.00 in
23:59 73.9 °F 60.5 °F 29.86 in Calm     63% 0.00 in
Buffalo, New York, USA
Compliments of Weather Underground - 2.5 mb